Time;durP1;ratioP1;P1;durP2;ratioP2;P2;SDS_P1;SDS_P2;PMS_P1;PMS_P2;Temp;Humidity;BMP_temperature;BMP_pressure;BME280_temperature;BME280_humidity;BME280_pressure;Samples;Min_cycle;Max_cycle;Signal;HPM_P1;HPM_P2
2022/05/14 00:00:24;;;;;;;6.55;3.85;;;;;;;;;;4996431;28;20532;-78
2022/05/14 00:02:51;;;;;;;6.55;3.83;;;;;;;;;;4998344;28;20030;-78
2022/05/14 00:05:20;;;;;;;8.00;3.60;;;;;;;;;;5004872;28;20018;-78
2022/05/14 00:07:47;;;;;;;7.20;3.92;;;;;;;;;;4994744;28;20359;-78
2022/05/14 00:10:13;;;;;;;7.75;3.88;;;;;;;;;;5007088;28;20026;-78
2022/05/14 00:15:26;;;;;;;6.50;3.65;;;;;;;;;;4992502;28;20107;-78
2022/05/14 00:17:54;;;;;;;6.88;3.78;;;;;;;;;;4994875;28;20057;-79
2022/05/14 00:20:22;;;;;;;5.80;3.65;;;;;;;;;;5001930;28;20025;-78
2022/05/14 00:22:48;;;;;;;10.88;4.05;;;;;;;;;;5009506;28;20029;-77
2022/05/14 00:25:14;;;;;;;6.43;3.50;;;;;;;;;;4994071;28;20030;-78
2022/05/14 00:27:44;;;;;;;6.32;3.92;;;;;;;;;;4994886;28;20026;-78
2022/05/14 00:30:12;;;;;;;5.35;3.72;;;;;;;;;;5007795;28;20070;-77
2022/05/14 00:32:39;;;;;;;7.15;4.78;;;;;;;;;;5005997;28;20033;-79
2022/05/14 00:35:06;;;;;;;7.43;3.75;;;;;;;;;;5008940;28;20250;-79
2022/05/14 00:37:32;;;;;;;5.38;3.38;;;;;;;;;;4996635;28;20125;-78
2022/05/14 00:39:59;;;;;;;6.53;3.53;;;;;;;;;;5010198;28;20124;-78
2022/05/14 00:42:25;;;;;;;6.13;3.70;;;;;;;;;;5005780;28;20057;-78
2022/05/14 00:44:52;;;;;;;7.78;3.30;;;;;;;;;;5010418;28;20038;-78
2022/05/14 00:47:19;;;;;;;6.93;4.03;;;;;;;;;;5012262;28;20053;-78
2022/05/14 00:49:45;;;;;;;9.50;4.70;;;;;;;;;;5010116;28;20030;-78
2022/05/14 00:52:16;;;;;;;6.68;3.83;;;;;;;;;;4993415;28;20405;-78
2022/05/14 00:54:47;;;;;;;7.68;4.35;;;;;;;;;;5006810;28;20087;-78
2022/05/14 00:57:14;;;;;;;6.18;3.72;;;;;;;;;;5010857;28;20057;-78
2022/05/14 00:59:41;;;;;;;7.13;3.63;;;;;;;;;;5010113;28;20033;-78
2022/05/14 01:02:07;;;;;;;6.10;3.53;;;;;;;;;;4993127;28;20030;-78
2022/05/14 01:04:34;;;;;;;6.03;3.83;;;;;;;;;;5007663;28;20041;-78
2022/05/14 01:07:03;;;;;;;5.57;3.72;;;;;;;;;;5003132;28;20066;-78
2022/05/14 01:09:30;;;;;;;6.38;3.55;;;;;;;;;;5009199;28;20430;-78
2022/05/14 01:11:56;;;;;;;7.45;3.70;;;;;;;;;;5009965;28;20477;-79
2022/05/14 01:14:23;;;;;;;6.00;3.83;;;;;;;;;;4993658;28;20062;-78
2022/05/14 01:16:51;;;;;;;7.13;3.55;;;;;;;;;;4993682;28;20073;-79
2022/05/14 01:19:17;;;;;;;8.88;4.57;;;;;;;;;;5004747;28;20030;-79
2022/05/14 01:22:02;;;;;;;5.72;3.33;;;;;;;;;;5003473;28;20030;-79
2022/05/14 01:27:25;;;;;;;7.30;3.83;;;;;;;;;;5006694;28;20088;-79
2022/05/14 01:29:51;;;;;;;7.72;3.70;;;;;;;;;;5016783;28;20048;-79
2022/05/14 01:32:17;;;;;;;7.18;3.72;;;;;;;;;;5010882;28;20030;-79
2022/05/14 01:34:47;;;;;;;5.68;3.50;;;;;;;;;;5011378;28;20057;-78
2022/05/14 01:37:13;;;;;;;8.00;4.03;;;;;;;;;;5009505;28;20057;-79
2022/05/14 01:39:39;;;;;;;6.43;4.30;;;;;;;;;;5011925;28;20033;-78
2022/05/14 01:42:05;;;;;;;7.15;5.10;;;;;;;;;;5014136;28;20512;-78
2022/05/14 01:44:32;;;;;;;7.15;3.55;;;;;;;;;;5012750;28;20109;-78
2022/05/14 01:46:58;;;;;;;7.45;3.95;;;;;;;;;;5015925;28;20034;-79
2022/05/14 01:49:24;;;;;;;9.60;4.93;;;;;;;;;;5015420;28;20153;-79
2022/05/14 01:51:50;;;;;;;7.32;3.97;;;;;;;;;;5002079;28;20026;-79
2022/05/14 01:54:15;;;;;;;6.40;4.47;;;;;;;;;;5003263;28;20568;-79
2022/05/14 01:56:42;;;;;;;6.82;3.63;;;;;;;;;;5016988;28;20109;-79
2022/05/14 01:59:09;;;;;;;6.15;3.83;;;;;;;;;;5016404;28;20485;-78
2022/05/14 02:01:36;;;;;;;7.20;3.65;;;;;;;;;;5019347;28;20032;-78
2022/05/14 02:04:04;;;;;;;6.85;3.38;;;;;;;;;;5019552;28;20068;-79
2022/05/14 02:06:30;;;;;;;6.63;3.35;;;;;;;;;;5025390;28;20030;-79
2022/05/14 02:08:57;;;;;;;6.88;3.60;;;;;;;;;;5019865;28;20022;-79
2022/05/14 02:11:23;;;;;;;9.18;3.55;;;;;;;;;;5018647;28;20060;-78
2022/05/14 02:13:50;;;;;;;7.55;3.97;;;;;;;;;;5014849;28;20033;-79
2022/05/14 02:16:17;;;;;;;5.10;2.95;;;;;;;;;;5014818;28;20026;-78
2022/05/14 02:18:43;;;;;;;6.15;3.80;;;;;;;;;;5012163;28;20029;-78
2022/05/14 02:21:09;;;;;;;7.88;3.30;;;;;;;;;;5008441;28;20018;-79
2022/05/14 02:23:37;;;;;;;7.13;3.75;;;;;;;;;;4994998;28;20022;-78
2022/05/14 02:26:05;;;;;;;6.20;3.40;;;;;;;;;;5007159;28;20117;-78
2022/05/14 02:28:31;;;;;;;7.05;3.65;;;;;;;;;;5014974;28;20148;-78
2022/05/14 02:30:57;;;;;;;6.03;3.53;;;;;;;;;;5015988;28;20314;-79
2022/05/14 02:33:23;;;;;;;6.93;3.45;;;;;;;;;;5009111;28;20032;-78
2022/05/14 02:35:49;;;;;;;8.18;3.60;;;;;;;;;;5016167;28;20025;-79
2022/05/14 02:38:15;;;;;;;7.63;3.85;;;;;;;;;;5016089;28;20057;-78
2022/05/14 02:40:42;;;;;;;6.50;3.38;;;;;;;;;;5015847;28;20478;-78
2022/05/14 02:43:08;;;;;;;4.97;3.33;;;;;;;;;;5012724;28;20054;-78
2022/05/14 02:45:34;;;;;;;6.68;3.92;;;;;;;;;;5015123;28;20560;-78
2022/05/14 02:48:00;;;;;;;7.00;3.65;;;;;;;;;;5001197;28;20072;-79
2022/05/14 02:50:26;;;;;;;6.72;3.10;;;;;;;;;;4995825;28;20033;-78
2022/05/14 02:52:52;;;;;;;6.25;3.47;;;;;;;;;;4995398;28;20034;-78
2022/05/14 02:55:18;;;;;;;7.15;3.63;;;;;;;;;;4998267;28;20386;-79
2022/05/14 02:57:44;;;;;;;7.18;3.60;;;;;;;;;;5014344;28;20544;-78
2022/05/14 03:00:12;;;;;;;6.57;4.00;;;;;;;;;;5013584;28;20030;-78
2022/05/14 03:02:38;;;;;;;6.22;3.58;;;;;;;;;;5011402;28;20067;-79
2022/05/14 03:05:05;;;;;;;6.15;4.05;;;;;;;;;;5013639;28;20061;-78
2022/05/14 03:07:31;;;;;;;6.88;3.80;;;;;;;;;;5013801;28;20034;-78
2022/05/14 03:09:57;;;;;;;8.35;3.55;;;;;;;;;;5014220;28;20347;-79
2022/05/14 03:12:24;;;;;;;7.93;3.67;;;;;;;;;;5013180;28;20472;-79
2022/05/14 03:14:50;;;;;;;5.80;3.60;;;;;;;;;;5013676;28;20054;-78
2022/05/14 03:17:16;;;;;;;5.93;3.58;;;;;;;;;;5006180;28;20036;-78
2022/05/14 03:19:43;;;;;;;6.35;3.70;;;;;;;;;;4996593;28;20080;-78
2022/05/14 03:22:09;;;;;;;7.47;3.88;;;;;;;;;;5013244;28;20030;-78
2022/05/14 03:24:36;;;;;;;7.18;3.97;;;;;;;;;;5011370;28;20030;-78
2022/05/14 03:27:02;;;;;;;6.60;3.90;;;;;;;;;;5011544;28;20041;-78
2022/05/14 03:29:29;;;;;;;6.50;4.38;;;;;;;;;;5012740;28;20373;-78
2022/05/14 03:31:57;;;;;;;5.32;3.75;;;;;;;;;;4995104;28;20022;-78
2022/05/14 03:34:23;;;;;;;5.50;3.20;;;;;;;;;;5031972;28;20029;-78
2022/05/14 03:36:49;;;;;;;7.18;3.92;;;;;;;;;;5011419;28;20036;-78
2022/05/14 03:39:15;;;;;;;10.57;4.43;;;;;;;;;;5022165;28;20117;-78
2022/05/14 03:41:42;;;;;;;8.35;4.55;;;;;;;;;;5013600;28;20080;-78
2022/05/14 03:44:08;;;;;;;6.10;4.10;;;;;;;;;;5013953;28;20062;-79
2022/05/14 03:46:34;;;;;;;7.43;3.85;;;;;;;;;;5012891;28;20097;-79
2022/05/14 03:49:00;;;;;;;11.15;4.97;;;;;;;;;;5002700;28;20026;-78
2022/05/14 03:51:27;;;;;;;6.00;3.78;;;;;;;;;;5014167;28;20021;-78
2022/05/14 03:53:54;;;;;;;7.85;4.25;;;;;;;;;;5016889;28;20030;-79
2022/05/14 03:56:20;;;;;;;7.63;3.97;;;;;;;;;;5004057;28;20058;-78
2022/05/14 03:58:46;;;;;;;8.80;4.18;;;;;;;;;;5004438;28;20030;-78
2022/05/14 04:01:12;;;;;;;6.28;4.15;;;;;;;;;;5010544;28;20068;-77
2022/05/14 04:03:38;;;;;;;7.22;3.88;;;;;;;;;;5011115;28;20037;-78
2022/05/14 04:06:05;;;;;;;7.90;3.53;;;;;;;;;;5006056;28;20493;-77
2022/05/14 04:08:31;;;;;;;8.82;3.60;;;;;;;;;;4992860;28;20065;-78
2022/05/14 04:10:57;;;;;;;6.50;4.25;;;;;;;;;;4995285;28;20022;-78
2022/05/14 04:13:24;;;;;;;6.32;4.35;;;;;;;;;;4991677;28;20022;-78
2022/05/14 04:15:50;;;;;;;6.03;4.25;;;;;;;;;;5009459;28;20033;-78
2022/05/14 04:18:20;;;;;;;6.47;3.65;;;;;;;;;;5001512;28;20034;-78
2022/05/14 04:20:47;;;;;;;6.32;4.00;;;;;;;;;;5008787;28;20482;-78
2022/05/14 04:23:13;;;;;;;8.60;4.70;;;;;;;;;;4994730;28;20037;-78
2022/05/14 04:25:39;;;;;;;7.55;3.70;;;;;;;;;;4999795;28;20027;-78
2022/05/14 04:28:05;;;;;;;5.07;3.90;;;;;;;;;;4993587;28;20113;-78
2022/05/14 04:30:31;;;;;;;5.82;4.10;;;;;;;;;;5000726;28;20022;-78
2022/05/14 04:32:57;;;;;;;8.23;3.78;;;;;;;;;;5004430;28;20026;-78
2022/05/14 04:35:23;;;;;;;7.25;4.00;;;;;;;;;;4998645;28;20482;-78
2022/05/14 04:37:49;;;;;;;7.43;4.00;;;;;;;;;;4999833;28;20033;-78
2022/05/14 04:40:15;;;;;;;8.18;4.53;;;;;;;;;;5012375;28;20029;-78
2022/05/14 04:42:41;;;;;;;7.32;4.60;;;;;;;;;;4999653;28;20042;-78
2022/05/14 04:45:09;;;;;;;6.95;4.68;;;;;;;;;;5000622;28;20368;-78
2022/05/14 04:47:35;;;;;;;6.78;4.32;;;;;;;;;;4997845;28;20022;-79
2022/05/14 04:50:01;;;;;;;6.88;3.90;;;;;;;;;;5009382;28;20440;-79
2022/05/14 04:52:27;;;;;;;7.40;4.85;;;;;;;;;;5010161;28;20021;-78
2022/05/14 04:54:53;;;;;;;7.82;4.28;;;;;;;;;;5000860;28;20355;-78
2022/05/14 04:57:19;;;;;;;9.00;4.57;;;;;;;;;;4993452;28;20037;-78
2022/05/14 04:59:45;;;;;;;8.05;4.65;;;;;;;;;;5001282;28;20113;-78
2022/05/14 05:04:56;;;;;;;6.68;4.28;;;;;;;;;;5003391;28;20045;-78
2022/05/14 05:07:22;;;;;;;8.63;4.75;;;;;;;;;;5009614;28;20109;-79
2022/05/14 05:09:48;;;;;;;6.93;4.20;;;;;;;;;;5013260;28;20062;-78
2022/05/14 05:12:14;;;;;;;6.97;4.07;;;;;;;;;;5012074;28;20014;-79
2022/05/14 05:14:41;;;;;;;5.80;4.03;;;;;;;;;;4997057;28;20022;-78
2022/05/14 05:17:07;;;;;;;6.63;4.03;;;;;;;;;;5012184;28;20029;-78
2022/05/14 05:19:34;;;;;;;7.25;4.85;;;;;;;;;;5012797;28;20078;-79
2022/05/14 05:22:00;;;;;;;6.10;3.80;;;;;;;;;;5011595;28;20033;-78
2022/05/14 05:24:26;;;;;;;7.40;3.40;;;;;;;;;;5006620;28;20030;-78
2022/05/14 05:26:52;;;;;;;6.00;3.92;;;;;;;;;;5015660;28;20034;-79
2022/05/14 05:29:18;;;;;;;7.43;3.80;;;;;;;;;;5013744;28;20647;-79
2022/05/14 05:31:44;;;;;;;6.65;4.25;;;;;;;;;;5016505;28;20112;-78
2022/05/14 05:34:10;;;;;;;5.57;3.78;;;;;;;;;;5003555;28;20030;-79
2022/05/14 05:36:36;;;;;;;5.78;3.55;;;;;;;;;;5010725;28;20022;-78
2022/05/14 05:39:02;;;;;;;6.93;3.90;;;;;;;;;;5014407;28;20057;-78
2022/05/14 05:41:28;;;;;;;7.55;4.20;;;;;;;;;;5015252;28;20033;-78
2022/05/14 05:43:54;;;;;;;7.07;4.10;;;;;;;;;;5004973;28;20046;-78
2022/05/14 05:46:21;;;;;;;7.25;3.90;;;;;;;;;;5010256;28;20527;-79
2022/05/14 05:48:47;;;;;;;4.93;3.55;;;;;;;;;;5016035;28;20026;-78
2022/05/14 05:51:13;;;;;;;7.00;3.80;;;;;;;;;;5015571;28;20243;-79
2022/05/14 05:59:08;;;;;;;5.75;3.63;;;;;;;;;;5013224;28;20045;-78
2022/05/14 06:01:34;;;;;;;8.00;3.78;;;;;;;;;;5016774;28;20034;-78
2022/05/14 06:04:00;;;;;;;7.43;4.28;;;;;;;;;;5012548;28;20088;-78
2022/05/14 06:06:27;;;;;;;5.65;4.10;;;;;;;;;;4997349;28;20501;-79
2022/05/14 06:08:54;;;;;;;7.50;4.03;;;;;;;;;;5014461;28;20026;-78
2022/05/14 06:11:20;;;;;;;8.18;4.47;;;;;;;;;;5011476;28;20026;-78
2022/05/14 06:13:46;;;;;;;6.25;4.05;;;;;;;;;;5002240;28;20406;-79
2022/05/14 06:16:14;;;;;;;8.50;4.22;;;;;;;;;;5010063;28;20034;-78
2022/05/14 06:18:42;;;;;;;6.07;4.18;;;;;;;;;;5025876;28;20053;-78
2022/05/14 06:21:08;;;;;;;8.18;4.20;;;;;;;;;;5018476;28;20026;-80
2022/05/14 06:23:35;;;;;;;9.18;4.40;;;;;;;;;;5011937;28;20022;-79
2022/05/14 06:26:01;;;;;;;7.20;4.20;;;;;;;;;;5016132;28;20030;-78
2022/05/14 06:28:27;;;;;;;6.93;3.90;;;;;;;;;;5012729;28;20457;-79
2022/05/14 06:30:53;;;;;;;6.25;4.07;;;;;;;;;;5015625;28;20026;-80
2022/05/14 06:33:20;;;;;;;9.43;3.97;;;;;;;;;;5003244;28;20058;-78
2022/05/14 06:35:46;;;;;;;7.50;4.63;;;;;;;;;;5012495;28;20080;-79
2022/05/14 06:38:14;;;;;;;7.68;3.85;;;;;;;;;;5015735;28;20022;-79
2022/05/14 06:40:40;;;;;;;7.68;4.30;;;;;;;;;;5001666;28;20034;-78
2022/05/14 06:43:06;;;;;;;7.28;4.10;;;;;;;;;;4995838;28;20050;-79
2022/05/14 06:45:33;;;;;;;6.85;4.03;;;;;;;;;;5005035;28;20383;-79
2022/05/14 06:47:59;;;;;;;6.47;3.97;;;;;;;;;;5015982;28;20498;-79
2022/05/14 06:50:26;;;;;;;7.40;4.22;;;;;;;;;;5014353;28;20018;-79
2022/05/14 06:52:58;;;;;;;8.85;4.53;;;;;;;;;;5006214;28;20034;-79
2022/05/14 06:55:25;;;;;;;7.05;4.15;;;;;;;;;;5009472;28;20117;-80
2022/05/14 06:57:52;;;;;;;8.00;4.10;;;;;;;;;;5014874;28;20038;-79
2022/05/14 07:00:18;;;;;;;7.15;4.25;;;;;;;;;;5006587;28;20041;-79
2022/05/14 07:02:46;;;;;;;7.07;4.47;;;;;;;;;;5015015;28;20021;-78
2022/05/14 07:07:56;;;;;;;8.13;4.38;;;;;;;;;;5010955;28;20037;-80
2022/05/14 07:10:22;;;;;;;7.45;4.70;;;;;;;;;;5003113;28;20474;-79
2022/05/14 07:12:49;;;;;;;6.68;4.50;;;;;;;;;;5013099;28;20036;-79
2022/05/14 07:15:15;;;;;;;8.20;4.82;;;;;;;;;;5002978;28;20044;-80
2022/05/14 07:17:41;;;;;;;7.55;4.40;;;;;;;;;;5010608;28;20055;-80
2022/05/14 07:20:08;;;;;;;8.27;4.63;;;;;;;;;;5014920;28;20080;-79
2022/05/14 07:22:34;;;;;;;10.10;5.40;;;;;;;;;;5001129;28;20101;-79
2022/05/14 07:25:04;;;;;;;9.55;5.10;;;;;;;;;;5016961;28;20101;-79
2022/05/14 07:27:35;;;;;;;7.78;4.75;;;;;;;;;;5015870;28;20396;-81
2022/05/14 07:30:04;;;;;;;7.72;4.35;;;;;;;;;;5014312;28;20022;-79
2022/05/14 07:32:30;;;;;;;7.10;4.80;;;;;;;;;;5015767;28;20030;-79
2022/05/14 07:34:56;;;;;;;10.48;4.20;;;;;;;;;;5015320;28;20045;-80
2022/05/14 07:37:22;;;;;;;6.40;3.75;;;;;;;;;;5013919;28;20194;-79
2022/05/14 07:39:56;;;;;;;6.78;4.70;;;;;;;;;;5016446;28;20037;-80
2022/05/14 07:42:30;;;;;;;6.57;4.32;;;;;;;;;;5014101;28;20045;-81
2022/05/14 07:44:58;;;;;;;9.18;4.60;;;;;;;;;;4996644;28;20048;-80
2022/05/14 07:47:24;;;;;;;7.15;4.93;;;;;;;;;;5012292;28;20596;-80
2022/05/14 07:49:50;;;;;;;9.02;5.05;;;;;;;;;;5015371;28;20030;-80
2022/05/14 07:52:17;;;;;;;9.50;5.03;;;;;;;;;;5015028;28;20125;-78
2022/05/14 07:54:43;;;;;;;7.90;4.30;;;;;;;;;;5016774;28;20026;-79
2022/05/14 07:57:09;;;;;;;8.25;5.10;;;;;;;;;;5006977;28;20026;-80
2022/05/14 07:59:36;;;;;;;5.55;3.95;;;;;;;;;;5009363;28;20092;-81
2022/05/14 08:02:06;;;;;;;7.00;4.15;;;;;;;;;;5015302;28;20030;-79
2022/05/14 08:04:32;;;;;;;7.70;4.32;;;;;;;;;;5012733;28;20030;-79
2022/05/14 08:06:58;;;;;;;6.55;3.78;;;;;;;;;;5015010;28;20026;-79
2022/05/14 08:09:24;;;;;;;6.13;3.85;;;;;;;;;;5014709;28;20053;-79
2022/05/14 08:11:52;;;;;;;6.60;3.72;;;;;;;;;;5012939;28;20075;-79
2022/05/14 08:14:19;;;;;;;7.53;3.28;;;;;;;;;;5015788;28;20018;-80
2022/05/14 08:16:45;;;;;;;4.93;3.40;;;;;;;;;;5015643;28;20034;-79
2022/05/14 08:19:11;;;;;;;7.65;3.67;;;;;;;;;;5013713;28;20061;-80
2022/05/14 08:24:30;;;;;;;5.65;3.00;;;;;;;;;;5016121;28;20099;-79
2022/05/14 08:26:56;;;;;;;6.72;3.35;;;;;;;;;;5015344;28;20076;-79
2022/05/14 08:29:22;;;;;;;5.00;3.20;;;;;;;;;;5015337;28;20064;-80
2022/05/14 08:31:49;;;;;;;6.63;3.17;;;;;;;;;;5015851;28;20064;-78
2022/05/14 08:34:15;;;;;;;5.35;3.05;;;;;;;;;;5015306;28;20053;-79
2022/05/14 08:36:42;;;;;;;7.88;3.30;;;;;;;;;;5015548;28;20038;-80
2022/05/14 08:39:08;;;;;;;4.72;3.30;;;;;;;;;;5015400;28;20048;-81
2022/05/14 08:41:37;;;;;;;6.32;3.40;;;;;;;;;;5006449;28;20084;-80
2022/05/14 08:44:06;;;;;;;6.38;3.40;;;;;;;;;;5004090;28;20038;-80
2022/05/14 08:46:32;;;;;;;6.10;3.55;;;;;;;;;;5010551;28;20026;-80
2022/05/14 08:49:10;;;;;;;6.78;3.50;;;;;;;;;;5016865;28;20041;-79
2022/05/14 08:51:39;;;;;;;6.20;3.20;;;;;;;;;;5017796;28;20413;-79
2022/05/14 08:54:05;;;;;;;6.75;4.07;;;;;;;;;;5011380;28;20124;-78
2022/05/14 08:56:50;;;;;;;7.38;3.47;;;;;;;;;;5012632;28;20497;-78
2022/05/14 08:59:30;;;;;;;8.38;3.60;;;;;;;;;;5018447;28;20036;-80
2022/05/14 09:02:01;;;;;;;5.57;3.80;;;;;;;;;;5016789;28;20022;-77
2022/05/14 09:04:27;;;;;;;8.50;4.10;;;;;;;;;;5019869;28;20032;-79
2022/05/14 09:06:54;;;;;;;7.00;3.40;;;;;;;;;;5017599;28;20022;-80
2022/05/14 09:09:20;;;;;;;6.55;3.10;;;;;;;;;;5010279;28;20155;-79
2022/05/14 09:11:52;;;;;;;6.82;3.50;;;;;;;;;;4999973;28;20031;-79
2022/05/14 09:14:24;;;;;;;5.25;2.85;;;;;;;;;;5010484;28;20030;-80
2022/05/14 09:16:58;;;;;;;5.57;3.10;;;;;;;;;;5019383;28;20030;-80
2022/05/14 09:19:27;;;;;;;6.57;3.92;;;;;;;;;;5018643;28;20064;-79
2022/05/14 09:21:57;;;;;;;4.93;3.10;;;;;;;;;;5017496;28;20033;-79
2022/05/14 09:24:40;;;;;;;5.65;3.40;;;;;;;;;;5016573;28;20053;-79
2022/05/14 09:27:14;;;;;;;6.82;3.25;;;;;;;;;;5018631;28;20033;-80
2022/05/14 09:29:42;;;;;;;6.35;3.53;;;;;;;;;;5002984;28;20033;-80
2022/05/14 09:32:17;;;;;;;5.63;2.78;;;;;;;;;;5026740;28;20084;-79
2022/05/14 09:34:43;;;;;;;6.55;2.70;;;;;;;;;;5020869;28;20030;-78
2022/05/14 09:37:11;;;;;;;6.40;3.03;;;;;;;;;;5018452;28;20041;-80
2022/05/14 09:39:37;;;;;;;5.07;3.22;;;;;;;;;;5019409;28;20156;-80
2022/05/14 09:42:04;;;;;;;5.10;3.00;;;;;;;;;;5022256;28;20032;-80
2022/05/14 09:44:50;;;;;;;7.30;3.35;;;;;;;;;;5022257;28;20030;-80
2022/05/14 09:47:24;;;;;;;5.60;3.05;;;;;;;;;;5028312;28;20022;-82
2022/05/14 09:50:13;;;;;;;7.13;2.95;;;;;;;;;;5022194;28;20044;-84
2022/05/14 09:52:39;;;;;;;5.07;3.28;;;;;;;;;;5009432;28;20109;-80
2022/05/14 09:55:08;;;;;;;5.55;3.42;;;;;;;;;;5015187;28;20125;-79
2022/05/14 09:57:34;;;;;;;7.80;3.10;;;;;;;;;;5017753;28;20029;-81
2022/05/14 10:00:12;;;;;;;5.05;3.03;;;;;;;;;;5011266;28;20026;-79
2022/05/14 10:02:38;;;;;;;5.72;3.88;;;;;;;;;;5015584;28;20525;-79
2022/05/14 10:05:07;;;;;;;6.68;3.85;;;;;;;;;;5009853;28;20026;-81
2022/05/14 10:07:36;;;;;;;6.70;3.72;;;;;;;;;;5018175;28;20022;-80
2022/05/14 10:10:08;;;;;;;6.00;3.10;;;;;;;;;;5017414;28;20489;-81
2022/05/14 10:12:34;;;;;;;5.10;2.85;;;;;;;;;;5018100;28;20058;-81
2022/05/14 10:15:00;;;;;;;6.25;3.15;;;;;;;;;;5027228;28;20045;-81
2022/05/14 10:17:38;;;;;;;5.85;3.08;;;;;;;;;;5037248;28;20022;-78
2022/05/14 10:20:12;;;;;;;5.22;3.10;;;;;;;;;;5021908;28;20166;-79
2022/05/14 10:28:18;;;;;;;5.35;3.03;;;;;;;;;;5016607;28;20056;-78
2022/05/14 10:30:47;;;;;;;5.50;2.97;;;;;;;;;;5018443;28;20026;-78
2022/05/14 10:33:17;;;;;;;5.13;2.88;;;;;;;;;;5020513;28;20029;-79
2022/05/14 10:36:02;;;;;;;5.10;3.20;;;;;;;;;;5019558;28;20026;-81
2022/05/14 10:38:37;;;;;;;6.18;3.10;;;;;;;;;;5017862;28;20634;-78
2022/05/14 10:41:06;;;;;;;5.55;2.80;;;;;;;;;;5006021;28;20030;-79
2022/05/14 10:43:41;;;;;;;9.23;3.03;;;;;;;;;;4998287;28;20402;-80
2022/05/14 10:46:11;;;;;;;6.25;2.75;;;;;;;;;;5019127;28;20018;-81
2022/05/14 10:48:53;;;;;;;6.38;2.85;;;;;;;;;;5017964;28;20022;-81
2022/05/14 10:51:20;;;;;;;5.55;2.83;;;;;;;;;;5012981;28;20110;-78
2022/05/14 10:53:46;;;;;;;5.70;2.80;;;;;;;;;;5024151;28;20021;-78
2022/05/14 10:56:29;;;;;;;5.80;3.13;;;;;;;;;;5022393;28;20048;-79
2022/05/14 10:59:00;;;;;;;5.53;2.80;;;;;;;;;;4997938;28;20034;-79
2022/05/14 11:01:46;;;;;;;6.82;3.08;;;;;;;;;;5016930;28;20113;-80
2022/05/14 11:04:12;;;;;;;6.35;2.90;;;;;;;;;;5028687;28;20026;-80
2022/05/14 11:06:58;;;;;;;6.50;2.58;;;;;;;;;;5020067;28;20501;-77
2022/05/14 11:09:31;;;;;;;5.13;2.53;;;;;;;;;;5015885;28;20045;-78
2022/05/14 11:11:59;;;;;;;6.28;2.72;;;;;;;;;;5014936;28;20508;-80
2022/05/14 11:14:36;;;;;;;6.43;3.00;;;;;;;;;;5016869;28;20030;-80
2022/05/14 11:17:02;;;;;;;5.15;2.95;;;;;;;;;;5019474;28;20030;-79
2022/05/14 11:19:29;;;;;;;6.35;2.80;;;;;;;;;;5029707;28;20034;-79
2022/05/14 11:21:56;;;;;;;6.00;2.55;;;;;;;;;;5018257;28;20034;-81
2022/05/14 11:24:40;;;;;;;5.10;2.75;;;;;;;;;;5008629;28;20026;-80
2022/05/14 11:27:06;;;;;;;6.63;2.78;;;;;;;;;;4997633;28;20022;-80
2022/05/14 11:29:47;;;;;;;6.53;2.90;;;;;;;;;;5016754;28;20022;-79
2022/05/14 11:32:15;;;;;;;6.05;2.60;;;;;;;;;;5017281;28;20117;-79
2022/05/14 11:34:58;;;;;;;4.88;2.80;;;;;;;;;;5016323;28;20485;-80
2022/05/14 11:37:25;;;;;;;;;;;;;;;;;;5015738;28;20022;-81
2022/05/14 11:40:02;;;;;;;4.95;2.60;;;;;;;;;;5027557;28;19909;-81
2022/05/14 11:42:30;;;;;;;6.80;2.60;;;;;;;;;;5036286;28;20053;-80
2022/05/14 11:44:56;;;;;;;6.75;2.80;;;;;;;;;;5016505;28;20033;-79
2022/05/14 11:47:42;;;;;;;6.60;2.90;;;;;;;;;;5016717;28;20022;-80
2022/05/14 11:50:09;;;;;;;6.68;2.78;;;;;;;;;;5024866;28;20037;-80
2022/05/14 11:52:53;;;;;;;4.97;2.50;;;;;;;;;;5015426;28;20022;-79
2022/05/14 11:55:21;;;;;;;5.28;2.22;;;;;;;;;;5015108;28;20536;-79
2022/05/14 11:58:06;;;;;;;4.50;2.40;;;;;;;;;;5016226;28;20022;-79
2022/05/14 12:00:33;;;;;;;6.00;3.00;;;;;;;;;;5015744;28;20018;-79
2022/05/14 12:03:21;;;;;;;5.07;2.50;;;;;;;;;;5012316;28;20498;-79
2022/05/14 12:05:58;;;;;;;4.72;2.47;;;;;;;;;;5014915;28;20072;-79
2022/05/14 12:08:42;;;;;;;6.22;2.80;;;;;;;;;;5016546;28;20098;-80
2022/05/14 12:11:15;;;;;;;6.15;3.15;;;;;;;;;;5016288;28;20022;-82
2022/05/14 12:13:44;;;;;;;5.18;2.80;;;;;;;;;;5014447;28;20112;-79
2022/05/14 12:16:10;;;;;;;4.65;2.50;;;;;;;;;;5020578;28;20065;-79
2022/05/14 12:18:40;;;;;;;5.15;2.55;;;;;;;;;;5023922;28;20037;-82
2022/05/14 12:21:06;;;;;;;5.43;2.80;;;;;;;;;;5025532;28;20105;-80
2022/05/14 12:23:38;;;;;;;5.32;2.70;;;;;;;;;;5015982;28;20035;-80
2022/05/14 12:26:05;;;;;;;4.63;2.50;;;;;;;;;;5017695;28;20033;-80
2022/05/14 12:28:33;;;;;;;7.35;2.58;;;;;;;;;;5017854;28;20291;-81
2022/05/14 12:34:04;;;;;;;5.05;2.70;;;;;;;;;;4995462;28;20040;-79
2022/05/14 12:36:35;;;;;;;6.00;2.50;;;;;;;;;;5014731;28;20030;-81
2022/05/14 12:39:03;;;;;;;6.07;2.70;;;;;;;;;;5015929;28;20311;-79
2022/05/14 12:41:39;;;;;;;5.35;2.63;;;;;;;;;;5014423;28;20022;-79
2022/05/14 12:44:13;;;;;;;5.28;2.65;;;;;;;;;;5014769;28;20136;-81
2022/05/14 12:46:43;;;;;;;5.70;2.92;;;;;;;;;;5016287;28;20115;-78
2022/05/14 12:49:16;;;;;;;6.07;2.60;;;;;;;;;;5014585;28;20046;-80
2022/05/14 12:51:47;;;;;;;5.07;2.53;;;;;;;;;;5016326;28;20457;-79
2022/05/14 12:54:23;;;;;;;5.18;2.63;;;;;;;;;;5024160;28;20079;-81
2022/05/14 12:56:51;;;;;;;4.45;2.25;;;;;;;;;;5029720;28;20023;-81
2022/05/14 12:59:17;;;;;;;6.88;2.72;;;;;;;;;;5003583;28;20034;-80
2022/05/14 13:01:43;;;;;;;5.68;2.50;;;;;;;;;;4994358;28;20034;-79
2022/05/14 13:04:10;;;;;;;4.47;2.40;;;;;;;;;;5013954;28;20038;-80
2022/05/14 13:06:40;;;;;;;6.07;2.67;;;;;;;;;;5023745;28;20076;-79
2022/05/14 13:09:10;;;;;;;6.05;2.40;;;;;;;;;;5029118;28;20405;-79
2022/05/14 13:11:37;;;;;;;6.35;2.70;;;;;;;;;;5012683;28;20029;-80
2022/05/14 13:14:12;;;;;;;5.32;2.47;;;;;;;;;;5012086;28;20076;-78
2022/05/14 13:16:38;;;;;;;4.60;2.85;;;;;;;;;;5002278;28;20093;-80
2022/05/14 13:19:22;;;;;;;5.50;2.47;;;;;;;;;;5016229;28;20122;-78
2022/05/14 13:21:50;;;;;;;4.88;2.30;;;;;;;;;;5012594;28;20149;-79
2022/05/14 13:24:27;;;;;;;6.70;2.50;;;;;;;;;;5005087;28;20027;-79
2022/05/14 13:26:54;;;;;;;5.05;2.60;;;;;;;;;;5001834;28;20062;-79
2022/05/14 13:29:30;;;;;;;5.22;2.50;;;;;;;;;;5006562;28;20121;-80
2022/05/14 13:32:07;;;;;;;5.85;2.47;;;;;;;;;;5025864;28;20029;-80
2022/05/14 13:37:31;;;;;;;5.25;2.40;;;;;;;;;;5016241;28;20409;-79
2022/05/14 13:40:13;;;;;;;7.90;2.50;;;;;;;;;;5000034;28;20042;-79
2022/05/14 13:42:39;;;;;;;;;;;;;;;;;;5015114;28;20121;-80
2022/05/14 13:45:19;;;;;;;5.75;2.78;;;;;;;;;;5017617;28;20443;-79
2022/05/14 13:47:51;;;;;;;6.50;2.70;;;;;;;;;;5015551;28;20026;-78
2022/05/14 13:50:25;;;;;;;5.63;2.42;;;;;;;;;;5018027;28;20168;-79
2022/05/14 13:52:53;;;;;;;5.43;2.35;;;;;;;;;;5005950;28;20098;-78
2022/05/14 13:55:39;;;;;;;5.30;2.20;;;;;;;;;;5015638;28;20313;-81
2022/05/14 13:58:24;;;;;;;5.32;2.78;;;;;;;;;;5017746;28;20037;-80
2022/05/14 14:00:56;;;;;;;5.05;2.72;;;;;;;;;;5018333;28;20030;-80
2022/05/14 14:03:24;;;;;;;4.10;2.43;;;;;;;;;;5015719;28;20105;-80
2022/05/14 14:05:51;;;;;;;5.30;2.70;;;;;;;;;;4998995;28;20023;-79
2022/05/14 14:08:20;;;;;;;5.63;2.40;;;;;;;;;;5017267;28;20501;-78
2022/05/14 14:10:46;;;;;;;4.75;2.15;;;;;;;;;;5017338;28;20049;-84
2022/05/14 14:13:12;;;;;;;6.97;2.65;;;;;;;;;;5017372;28;20080;-78
2022/05/14 14:15:38;;;;;;;5.45;2.70;;;;;;;;;;5016773;28;20052;-79
2022/05/14 14:18:05;;;;;;;4.50;2.38;;;;;;;;;;5025577;28;20030;-77
2022/05/14 14:20:33;;;;;;;6.65;2.95;;;;;;;;;;5017109;28;20049;-80
2022/05/14 14:23:04;;;;;;;3.97;2.20;;;;;;;;;;5011440;28;20048;-79
2022/05/14 14:25:30;;;;;;;5.32;2.67;;;;;;;;;;4998604;28;20037;-80
2022/05/14 14:27:56;;;;;;;5.00;2.40;;;;;;;;;;4999181;28;20370;-80
2022/05/14 14:30:23;;;;;;;5.32;2.65;;;;;;;;;;5018284;28;20490;-79
2022/05/14 14:32:49;;;;;;;4.88;2.45;;;;;;;;;;5018532;28;20022;-78
2022/05/14 14:35:15;;;;;;;5.10;2.92;;;;;;;;;;5013938;28;20100;-77
2022/05/14 14:37:42;;;;;;;5.30;2.92;;;;;;;;;;4999933;28;20020;-77
2022/05/14 14:40:10;;;;;;;6.40;3.17;;;;;;;;;;4999983;28;20018;-78
2022/05/14 14:42:36;;;;;;;5.43;3.00;;;;;;;;;;5027070;28;20058;-79
2022/05/14 14:45:03;;;;;;;6.90;2.92;;;;;;;;;;5016778;28;20121;-79
2022/05/14 14:47:30;;;;;;;5.85;2.97;;;;;;;;;;5012668;28;20029;-78
2022/05/14 14:49:58;;;;;;;5.25;2.92;;;;;;;;;;5014553;28;20390;-79
2022/05/14 14:52:24;;;;;;;5.75;2.95;;;;;;;;;;5002326;28;20025;-80
2022/05/14 14:54:50;;;;;;;7.03;3.10;;;;;;;;;;5021424;28;20065;-79
2022/05/14 14:57:16;;;;;;;4.80;3.10;;;;;;;;;;5012564;28;20030;-79
2022/05/14 14:59:42;;;;;;;6.22;3.92;;;;;;;;;;5016709;28;20031;-79
2022/05/14 15:02:14;;;;;;;8.57;4.40;;;;;;;;;;5017397;28;20495;-78
2022/05/14 15:04:43;;;;;;;6.68;3.20;;;;;;;;;;5015421;28;20495;-80
2022/05/14 15:07:10;;;;;;;4.70;3.25;;;;;;;;;;5016035;28;20033;-79
2022/05/14 15:09:36;;;;;;;6.05;3.20;;;;;;;;;;5015346;28;20072;-79
2022/05/14 15:12:03;;;;;;;5.90;2.70;;;;;;;;;;5016371;28;20022;-79
2022/05/14 15:14:32;;;;;;;5.00;2.60;;;;;;;;;;5014454;28;20062;-81
2022/05/14 15:16:58;;;;;;;9.20;5.00;;;;;;;;;;5017025;28;20038;-79
2022/05/14 15:19:24;;;;;;;7.65;4.03;;;;;;;;;;5005651;28;20022;-79
2022/05/14 15:21:53;;;;;;;5.13;3.08;;;;;;;;;;5022663;28;20026;-79